createdAt,value
2018-08-03T00:00:22.246Z,23.64
2018-08-03T00:01:22.282Z,23.69
2018-08-03T00:02:22.224Z,23.75
2018-08-03T00:03:22.178Z,23.67
2018-08-03T00:04:22.200Z,23.68
2018-08-03T00:05:22.210Z,23.67
2018-08-03T00:06:22.209Z,23.67
2018-08-03T00:07:22.204Z,23.69
2018-08-03T00:08:22.164Z,23.64
2018-08-03T00:09:22.153Z,23.62
2018-08-03T00:10:22.137Z,23.59
2018-08-03T00:11:22.183Z,23.56
2018-08-03T00:12:22.122Z,23.54
2018-08-03T00:13:22.212Z,23.59
2018-08-03T00:14:22.098Z,23.54
2018-08-03T00:15:22.098Z,23.60
2018-08-03T00:16:22.102Z,23.63
2018-08-03T00:17:22.085Z,23.60
2018-08-03T00:18:22.062Z,23.60
2018-08-03T00:19:22.045Z,23.56
2018-08-03T00:20:22.039Z,23.62
2018-08-03T00:21:22.051Z,23.53
2018-08-03T00:22:22.006Z,23.59
2018-08-03T00:23:22.008Z,23.54
2018-08-03T00:24:21.993Z,23.54
2018-08-03T00:25:21.977Z,23.53
2018-08-03T00:26:21.969Z,23.45
2018-08-03T00:27:22.012Z,23.49
2018-08-03T00:28:21.943Z,23.39
2018-08-03T00:29:21.935Z,23.44
2018-08-03T00:30:21.944Z,23.47
2018-08-03T00:31:21.917Z,23.41
2018-08-03T00:32:21.939Z,23.37
2018-08-03T00:33:21.885Z,23.34
2018-08-03T00:34:21.879Z,23.35
2018-08-03T00:35:21.875Z,23.29
2018-08-03T00:36:21.870Z,23.26
2018-08-03T00:37:21.831Z,23.31
2018-08-03T00:38:21.835Z,23.32
2018-08-03T00:39:21.837Z,23.21
2018-08-03T00:40:21.814Z,23.21
2018-08-03T00:41:21.770Z,23.16
2018-08-03T00:42:21.824Z,23.12
2018-08-03T00:43:21.787Z,23.06
2018-08-03T00:44:21.783Z,23.14
2018-08-03T00:45:21.757Z,23.15
2018-08-03T00:46:21.708Z,23.03
2018-08-03T00:47:21.757Z,23.01
2018-08-03T00:48:21.688Z,23.01
2018-08-03T00:49:21.717Z,22.97
2018-08-03T00:50:21.723Z,23.00
2018-08-03T00:51:21.701Z,22.94
2018-08-03T00:52:21.707Z,22.94
2018-08-03T00:53:21.692Z,23.00
2018-08-03T00:54:21.676Z,22.99
2018-08-03T00:55:21.661Z,22.94
2018-08-03T00:56:21.592Z,22.89
2018-08-03T00:57:21.677Z,22.91
2018-08-03T00:58:21.622Z,22.91
2018-08-03T00:59:21.567Z,22.79
2018-08-03T01:00:21.602Z,22.91
2018-08-03T01:01:21.542Z,22.79
2018-08-03T01:02:21.600Z,22.82
2018-08-03T01:03:21.578Z,22.86
2018-08-03T01:04:21.560Z,22.85
2018-08-03T01:05:21.549Z,22.82
2018-08-03T01:06:21.492Z,22.78
2018-08-03T01:07:21.544Z,22.76
2018-08-03T01:08:21.526Z,22.72
2018-08-03T01:09:21.508Z,22.69
2018-08-03T01:10:21.506Z,22.72
2018-08-03T01:11:21.493Z,22.67
2018-08-03T01:12:21.460Z,22.72
2018-08-03T01:13:21.465Z,22.76
2018-08-03T01:14:21.450Z,22.69
2018-08-03T01:15:21.449Z,22.69
2018-08-03T01:16:21.385Z,22.74
2018-08-03T01:17:21.440Z,22.66
2018-08-03T01:18:21.413Z,22.69
2018-08-03T01:19:21.391Z,22.63
2018-08-03T01:20:21.419Z,22.64
2018-08-03T01:21:21.381Z,22.59
2018-08-03T01:22:21.394Z,22.59
2018-08-03T01:23:21.359Z,22.60
2018-08-03T01:24:21.340Z,22.60
2018-08-03T01:25:21.357Z,22.56
2018-08-03T01:26:21.337Z,22.57
2018-08-03T01:27:21.332Z,22.56
2018-08-03T01:28:21.301Z,22.54
2018-08-03T01:29:21.310Z,22.54
2018-08-03T01:30:21.303Z,22.51
2018-08-03T01:31:21.270Z,22.49
2018-08-03T01:32:21.272Z,22.56
2018-08-03T01:33:28.285Z,22.56
2018-08-03T01:34:21.191Z,22.54
2018-08-03T01:35:21.218Z,22.56
2018-08-03T01:36:21.205Z,22.56
2018-08-03T01:37:21.217Z,22.48
2018-08-03T01:38:21.187Z,22.56
2018-08-03T01:39:21.182Z,22.54
2018-08-03T01:40:21.176Z,22.46
2018-08-03T01:41:21.152Z,22.49
2018-08-03T01:42:21.167Z,22.45
2018-08-03T01:43:21.132Z,22.46
2018-08-03T01:44:21.122Z,22.42
2018-08-03T01:45:21.117Z,22.46
2018-08-03T01:46:21.107Z,22.42
2018-08-03T01:47:21.129Z,22.46
2018-08-03T01:48:21.076Z,22.46
2018-08-03T01:49:21.071Z,22.46
2018-08-03T01:50:21.017Z,22.36
2018-08-03T01:51:21.042Z,22.38
2018-08-03T01:52:21.090Z,22.42
2018-08-03T01:53:21.024Z,22.42
2018-08-03T01:54:21.016Z,22.44
2018-08-03T01:55:21.008Z,22.36
2018-08-03T01:56:21.000Z,22.36
2018-08-03T01:57:20.980Z,22.33
2018-08-03T01:58:20.984Z,22.36
2018-08-03T01:59:20.918Z,22.35
2018-08-03T02:00:20.946Z,22.33
2018-08-03T02:01:20.888Z,22.38
2018-08-03T02:02:20.928Z,22.31
2018-08-03T02:03:21.045Z,22.31
2018-08-03T02:04:20.923Z,22.31
2018-08-03T02:05:20.891Z,22.35
2018-08-03T02:06:20.883Z,22.19
2018-08-03T02:07:20.871Z,22.20
2018-08-03T02:08:20.879Z,22.17
2018-08-03T02:09:20.853Z,22.20
2018-08-03T02:10:20.838Z,22.20
2018-08-03T02:11:20.827Z,22.23
2018-08-03T02:12:20.812Z,22.20
2018-08-03T02:13:20.903Z,22.26
2018-08-03T02:14:20.793Z,22.15
2018-08-03T02:15:20.799Z,22.19
2018-08-03T02:16:20.768Z,22.20
2018-08-03T02:17:20.758Z,22.20
2018-08-03T02:18:20.770Z,22.21
2018-08-03T02:19:20.820Z,22.15
2018-08-03T02:20:20.681Z,22.21
2018-08-03T02:21:20.724Z,22.14
2018-08-03T02:22:20.706Z,22.15
2018-08-03T02:23:20.780Z,22.19
2018-08-03T02:24:20.680Z,22.14
2018-08-03T02:25:20.639Z,22.12
2018-08-03T02:26:20.610Z,22.14
2018-08-03T02:27:20.658Z,22.11
2018-08-03T02:28:20.677Z,22.14
2018-08-03T02:29:20.626Z,22.08
2018-08-03T02:30:20.623Z,22.09
2018-08-03T02:31:20.605Z,22.11
2018-08-03T02:32:20.557Z,22.04
2018-08-03T02:33:20.620Z,22.08
2018-08-03T02:34:20.568Z,22.11
2018-08-03T02:35:20.561Z,22.01
2018-08-03T02:36:20.565Z,22.08
2018-08-03T02:37:20.545Z,22.01
2018-08-03T02:38:20.563Z,22.08
2018-08-03T02:39:20.517Z,22.01
2018-08-03T02:40:20.465Z,22.06
2018-08-03T02:41:20.458Z,22.04
2018-08-03T02:42:20.488Z,22.05
2018-08-03T02:43:20.503Z,21.94
2018-08-03T02:44:20.469Z,22.02
2018-08-03T02:45:20.465Z,21.94
2018-08-03T02:46:20.452Z,21.99
2018-08-03T02:47:20.433Z,21.98
2018-08-03T02:48:20.441Z,22.01
2018-08-03T02:49:20.408Z,22.02
2018-08-03T02:50:20.363Z,21.94
2018-08-03T02:51:20.381Z,22.01
2018-08-03T02:52:20.340Z,21.93
2018-08-03T02:53:20.386Z,21.94
2018-08-03T02:54:20.373Z,21.90
2018-08-03T02:55:20.368Z,21.89
2018-08-03T02:56:20.340Z,21.89
2018-08-03T02:57:20.324Z,21.74
2018-08-03T02:58:20.330Z,21.86
2018-08-03T02:59:20.315Z,21.75
2018-08-03T03:00:20.292Z,21.83
2018-08-03T03:01:20.287Z,21.86
2018-08-03T03:02:20.232Z,21.89
2018-08-03T03:03:20.291Z,21.79
2018-08-03T03:04:20.254Z,21.74
2018-08-03T03:05:20.197Z,21.82
2018-08-03T03:06:20.280Z,21.93
2018-08-03T03:07:20.281Z,21.82
2018-08-03T03:08:20.349Z,21.86
2018-08-03T03:09:20.196Z,21.89
2018-08-03T03:10:20.200Z,21.75
2018-08-03T03:11:20.169Z,21.77
2018-08-03T03:12:20.124Z,21.74
2018-08-03T03:13:20.166Z,21.71
2018-08-03T03:14:20.159Z,21.67
2018-08-03T03:15:20.124Z,21.77
2018-08-03T03:16:20.117Z,21.71
2018-08-03T03:17:20.101Z,21.68
2018-08-03T03:18:20.141Z,21.68
2018-08-03T03:19:20.129Z,21.73
2018-08-03T03:20:20.069Z,21.71
2018-08-03T03:21:20.057Z,21.74
2018-08-03T03:22:20.018Z,21.68
2018-08-03T03:23:20.056Z,21.70
2018-08-03T03:24:20.023Z,21.68
2018-08-03T03:25:20.007Z,21.66
2018-08-03T03:26:19.995Z,21.64
2018-08-03T03:27:19.989Z,21.51
2018-08-03T03:28:20.004Z,21.64
2018-08-03T03:29:19.965Z,21.63
2018-08-03T03:30:19.953Z,21.63
2018-08-03T03:31:19.941Z,21.53
2018-08-03T03:32:19.944Z,21.59
2018-08-03T03:33:19.942Z,21.52
2018-08-03T03:34:19.905Z,21.48
2018-08-03T03:35:19.895Z,21.53
2018-08-03T03:36:19.890Z,21.43
2018-08-03T03:37:19.869Z,21.46
2018-08-03T03:38:19.880Z,21.43
2018-08-03T03:39:19.861Z,21.40
2018-08-03T03:40:19.848Z,21.40
2018-08-03T03:41:19.855Z,21.45
2018-08-03T03:42:19.811Z,21.45
2018-08-03T03:43:19.824Z,21.43
2018-08-03T03:44:19.796Z,21.43
2018-08-03T03:45:19.788Z,21.42
2018-08-03T03:46:19.770Z,21.40
2018-08-03T03:47:19.743Z,21.40
2018-08-03T03:48:19.779Z,21.28
2018-08-03T03:49:19.741Z,21.33
2018-08-03T03:50:19.726Z,21.33
2018-08-03T03:51:19.717Z,21.30
2018-08-03T03:52:19.710Z,21.33
2018-08-03T03:53:19.732Z,21.26
2018-08-03T03:54:19.685Z,21.26
2018-08-03T03:55:19.682Z,21.37
2018-08-03T03:56:19.659Z,21.26
2018-08-03T03:57:19.611Z,21.30
2018-08-03T03:58:19.664Z,21.33
2018-08-03T03:59:19.682Z,21.30
2018-08-03T04:00:19.615Z,21.31
2018-08-03T04:01:19.559Z,21.31
2018-08-03T04:02:19.546Z,21.27
2018-08-03T04:03:19.615Z,21.26
2018-08-03T04:04:19.600Z,21.26
2018-08-03T04:05:19.650Z,21.30
2018-08-03T04:06:19.554Z,21.26
2018-08-03T04:07:19.535Z,21.31
2018-08-03T04:08:19.546Z,21.31
2018-08-03T04:09:19.684Z,21.30
2018-08-03T04:10:19.505Z,21.27
2018-08-03T04:11:19.491Z,21.24
2018-08-03T04:12:19.544Z,21.22
2018-08-03T04:13:19.419Z,21.28
2018-08-03T04:14:19.475Z,21.26
2018-08-03T04:15:19.452Z,21.27
2018-08-03T04:16:19.426Z,21.26
2018-08-03T04:17:19.427Z,21.27
2018-08-03T04:18:19.404Z,21.38
2018-08-03T04:19:19.416Z,21.38
2018-08-03T04:20:19.410Z,21.36
2018-08-03T04:21:19.379Z,21.43
2018-08-03T04:22:19.380Z,21.36
2018-08-03T04:23:19.350Z,21.43
2018-08-03T04:24:19.369Z,21.45
2018-08-03T04:25:19.334Z,21.40
2018-08-03T04:26:19.315Z,21.43
2018-08-03T04:27:19.312Z,21.42
2018-08-03T04:28:19.302Z,21.43
2018-08-03T04:29:19.307Z,21.40
2018-08-03T04:30:19.281Z,21.42
2018-08-03T04:31:19.265Z,21.45
2018-08-03T04:32:19.260Z,21.43
2018-08-03T04:33:19.240Z,21.38
2018-08-03T04:34:19.207Z,21.45
2018-08-03T04:35:19.952Z,21.49
2018-08-03T04:36:19.235Z,21.53
2018-08-03T04:37:19.196Z,21.48
2018-08-03T04:38:19.188Z,21.55
2018-08-03T04:39:19.157Z,21.56
2018-08-03T04:40:19.167Z,21.61
2018-08-03T04:41:19.149Z,21.71
2018-08-03T04:42:19.123Z,21.66
2018-08-03T04:43:19.133Z,21.71
2018-08-03T04:44:19.150Z,21.71
2018-08-03T04:45:19.111Z,21.73
2018-08-03T04:46:19.093Z,21.67
2018-08-03T04:47:19.056Z,21.77
2018-08-03T04:48:19.075Z,21.83
2018-08-03T04:49:19.085Z,21.81
2018-08-03T04:50:19.059Z,21.75
2018-08-03T04:51:19.041Z,21.85
2018-08-03T04:52:19.047Z,22.01
2018-08-03T04:53:19.013Z,22.04
2018-08-03T04:54:19.045Z,22.11
2018-08-03T04:55:19.004Z,22.23
2018-08-03T04:56:18.981Z,22.23
2018-08-03T04:57:18.937Z,22.21
2018-08-03T04:58:18.967Z,22.26
2018-08-03T04:59:18.981Z,22.26
2018-08-03T05:00:18.942Z,22.19
2018-08-03T05:01:18.930Z,22.21
2018-08-03T05:02:18.939Z,22.23
2018-08-03T05:03:18.914Z,22.33
2018-08-03T05:04:18.939Z,22.38
2018-08-03T05:05:18.886Z,22.41
2018-08-03T05:06:18.840Z,22.31
2018-08-03T05:07:18.826Z,22.35
2018-08-03T05:08:18.973Z,22.35
2018-08-03T05:09:18.901Z,22.33
2018-08-03T05:10:18.831Z,22.48
2018-08-03T05:11:18.818Z,22.42
2018-08-03T05:12:18.812Z,22.44
2018-08-03T05:13:18.810Z,22.56
2018-08-03T05:14:19.084Z,22.56
2018-08-03T05:15:18.836Z,22.57
2018-08-03T05:16:18.787Z,22.57
2018-08-03T05:17:18.763Z,22.54
2018-08-03T05:18:18.794Z,22.69
2018-08-03T05:19:18.756Z,22.72
2018-08-03T05:20:18.725Z,22.64
2018-08-03T05:21:18.725Z,22.74
2018-08-03T05:22:18.722Z,22.70
2018-08-03T05:23:18.689Z,22.78
2018-08-03T05:24:25.741Z,22.79
2018-08-03T05:25:18.673Z,22.81
2018-08-03T05:26:18.659Z,22.88
2018-08-03T05:27:18.605Z,22.82
2018-08-03T05:28:18.637Z,22.91
2018-08-03T05:29:18.647Z,22.94
2018-08-03T05:30:18.619Z,22.93
2018-08-03T05:31:18.610Z,23.00
2018-08-03T05:32:18.597Z,23.09
2018-08-03T05:33:18.588Z,23.03
2018-08-03T05:34:18.613Z,23.12
2018-08-03T05:35:18.585Z,23.15
2018-08-03T05:36:18.591Z,23.21
2018-08-03T05:37:18.558Z,23.29
2018-08-03T05:38:18.525Z,23.26
2018-08-03T05:39:18.543Z,23.32
2018-08-03T05:40:18.512Z,23.32
2018-08-03T05:41:18.502Z,23.38
2018-08-03T05:42:18.486Z,23.50
2018-08-03T05:43:18.479Z,23.49
2018-08-03T05:44:18.511Z,23.49
2018-08-03T05:45:18.467Z,23.50
2018-08-03T05:46:18.449Z,23.54
2018-08-03T05:47:18.437Z,23.54
2018-08-03T05:48:18.432Z,23.67
2018-08-03T05:49:18.439Z,23.71
2018-08-03T05:50:18.469Z,23.74
2018-08-03T05:51:18.393Z,23.84
2018-08-03T05:52:18.432Z,23.90
2018-08-03T05:53:18.367Z,23.87
2018-08-03T05:54:18.464Z,23.87
2018-08-03T05:55:18.352Z,23.94
2018-08-03T05:56:18.333Z,23.93
2018-08-03T05:57:18.323Z,23.96
2018-08-03T05:58:18.323Z,23.97
2018-08-03T05:59:21.125Z,23.99
2018-08-03T06:00:18.254Z,23.97
2018-08-03T06:01:18.303Z,23.96
2018-08-03T06:02:18.271Z,24.02
2018-08-03T06:03:18.257Z,24.12
2018-08-03T06:04:18.266Z,24.15
2018-08-03T06:05:18.245Z,24.18
2018-08-03T06:06:18.243Z,24.16
2018-08-03T06:07:18.278Z,24.16
2018-08-03T06:08:18.226Z,24.19
2018-08-03T06:09:18.211Z,24.31
2018-08-03T06:10:18.186Z,24.39
2018-08-03T06:11:18.250Z,24.39
2018-08-03T06:12:18.176Z,24.44
2018-08-03T06:13:18.106Z,24.45
2018-08-03T06:14:18.137Z,24.46
2018-08-03T06:15:18.163Z,24.49
2018-08-03T06:16:18.069Z,24.59
2018-08-03T06:17:18.090Z,24.49
2018-08-03T06:18:18.110Z,24.63
2018-08-03T06:19:18.046Z,24.70
2018-08-03T06:20:18.095Z,24.67
2018-08-03T06:21:18.106Z,24.83
2018-08-03T06:22:18.092Z,24.98
2018-08-03T06:23:18.059Z,25.26
2018-08-03T06:24:18.033Z,25.51
2018-08-03T06:25:18.052Z,25.85
2018-08-03T06:26:18.007Z,26.31
2018-08-03T06:27:18.041Z,26.96
2018-08-03T06:28:17.992Z,27.48
2018-08-03T06:29:17.979Z,27.99
2018-08-03T06:30:17.988Z,28.45
2018-08-03T06:31:17.953Z,28.92
2018-08-03T06:32:17.945Z,29.15
2018-08-03T06:33:17.964Z,29.58
2018-08-03T06:34:17.933Z,29.95
2018-08-03T06:35:17.939Z,30.48
2018-08-03T06:36:17.903Z,31.01
2018-08-03T06:37:17.888Z,31.49
2018-08-03T06:38:17.900Z,31.92
2018-08-03T06:39:17.889Z,32.27
2018-08-03T06:40:17.888Z,32.59
2018-08-03T06:41:17.857Z,32.85
2018-08-03T06:42:17.839Z,32.99
2018-08-03T06:43:17.831Z,33.20
2018-08-03T06:44:17.842Z,33.40
2018-08-03T06:45:17.831Z,33.66
2018-08-03T06:46:17.794Z,33.77
2018-08-03T06:47:17.799Z,33.81
2018-08-03T06:48:18.566Z,34.14
2018-08-03T06:49:17.768Z,34.48
2018-08-03T06:50:17.802Z,34.42
2018-08-03T06:51:17.760Z,34.52
2018-08-03T06:52:17.739Z,34.71
2018-08-03T06:53:17.685Z,34.99
2018-08-03T06:54:17.727Z,35.18
2018-08-03T06:55:17.724Z,35.28
2018-08-03T06:56:17.708Z,35.55
2018-08-03T06:57:17.707Z,35.65
2018-08-03T06:58:17.680Z,35.83
2018-08-03T06:59:17.687Z,35.87
2018-08-03T07:00:17.823Z,35.89
2018-08-03T07:01:17.644Z,35.95
2018-08-03T07:02:17.632Z,36.00
2018-08-03T07:03:17.646Z,35.89
2018-08-03T07:04:17.618Z,35.98
2018-08-03T07:05:17.642Z,35.92
2018-08-03T07:06:17.593Z,35.96
2018-08-03T07:07:17.550Z,35.99
2018-08-03T07:08:17.568Z,36.00
2018-08-03T07:09:17.575Z,35.96
2018-08-03T07:10:17.675Z,36.12
2018-08-03T07:11:17.546Z,36.05
2018-08-03T07:12:17.534Z,36.31
2018-08-03T07:13:17.531Z,36.43
2018-08-03T07:14:17.557Z,36.38
2018-08-03T07:15:17.483Z,36.44
2018-08-03T07:16:17.499Z,36.46
2018-08-03T07:17:17.481Z,36.33
2018-08-03T07:18:17.481Z,36.13
2018-08-03T07:19:17.474Z,36.37
2018-08-03T07:20:17.653Z,36.52
2018-08-03T07:21:17.443Z,36.43
2018-08-03T07:22:17.483Z,36.60
2018-08-03T07:23:17.422Z,36.82
2018-08-03T07:24:17.406Z,36.97
2018-08-03T07:25:17.410Z,37.21
2018-08-03T07:26:17.412Z,37.25
2018-08-03T07:27:17.378Z,37.45
2018-08-03T07:28:17.371Z,37.43
2018-08-03T07:29:17.363Z,37.66
2018-08-03T07:30:17.365Z,37.62
2018-08-03T07:31:17.370Z,37.66
2018-08-03T07:32:17.336Z,37.81
2018-08-03T07:33:17.331Z,37.73
2018-08-03T07:34:17.318Z,37.95
2018-08-03T07:35:17.302Z,38.16
2018-08-03T07:36:17.309Z,38.26
2018-08-03T07:37:17.290Z,38.24
2018-08-03T07:38:17.278Z,37.93
2018-08-03T07:39:17.256Z,38.02
2018-08-03T07:40:17.248Z,37.75
2018-08-03T07:41:17.290Z,37.78
2018-08-03T07:42:17.233Z,37.72
2018-08-03T07:43:17.272Z,37.77
2018-08-03T07:44:17.239Z,37.49
2018-08-03T07:45:17.196Z,37.30
2018-08-03T07:46:17.230Z,37.25
2018-08-03T07:47:17.180Z,37.47
2018-08-03T07:48:17.129Z,37.56
2018-08-03T07:49:17.155Z,37.59
2018-08-03T07:50:17.151Z,37.53
2018-08-03T07:51:17.171Z,37.40
2018-08-03T07:52:17.129Z,37.24
2018-08-03T07:53:17.283Z,37.35
2018-08-03T07:54:17.110Z,37.53
2018-08-03T07:55:17.101Z,37.70
2018-08-03T07:56:17.123Z,37.87
2018-08-03T07:57:17.097Z,37.73
2018-08-03T07:58:17.071Z,37.59
2018-08-03T07:59:17.022Z,37.16
2018-08-03T08:00:17.077Z,36.93
2018-08-03T08:01:17.062Z,36.75
2018-08-03T08:02:16.983Z,36.96
2018-08-03T08:03:17.141Z,36.71
2018-08-03T08:04:17.007Z,36.68
2018-08-03T08:05:17.010Z,36.78
2018-08-03T08:06:17.073Z,36.87
2018-08-03T08:07:17.033Z,36.87
2018-08-03T08:08:16.973Z,37.20
2018-08-03T08:09:16.969Z,37.31
2018-08-03T08:10:16.953Z,37.38
2018-08-03T08:11:16.986Z,37.45
2018-08-03T08:12:16.930Z,37.54
2018-08-03T08:13:16.922Z,37.39
2018-08-03T08:14:16.911Z,37.33
2018-08-03T08:15:16.932Z,37.11
2018-08-03T08:16:16.938Z,36.67
2018-08-03T08:17:16.886Z,36.21
2018-08-03T08:18:16.870Z,36.18
2018-08-03T08:19:16.867Z,36.15
2018-08-03T08:20:16.854Z,36.19
2018-08-03T08:21:16.849Z,36.43
2018-08-03T08:22:16.860Z,36.60
2018-08-03T08:23:16.831Z,37.04
2018-08-03T08:24:16.812Z,37.27
2018-08-03T08:25:16.823Z,37.34
2018-08-03T08:26:16.789Z,37.43
2018-08-03T08:27:16.832Z,37.47
2018-08-03T08:28:16.772Z,37.73
2018-08-03T08:29:16.794Z,37.68
2018-08-03T08:30:16.756Z,37.87
2018-08-03T08:31:16.753Z,37.81
2018-08-03T08:32:16.760Z,37.85
2018-08-03T08:33:16.727Z,37.82
2018-08-03T08:34:16.719Z,37.93
2018-08-03T08:35:16.702Z,37.77
2018-08-03T08:36:16.700Z,37.78
2018-08-03T08:37:16.717Z,37.68
2018-08-03T08:38:16.684Z,37.43
2018-08-03T08:39:16.657Z,37.62
2018-08-03T08:40:16.661Z,37.93
2018-08-03T08:41:16.641Z,37.96
2018-08-03T08:42:16.666Z,38.15
2018-08-03T08:43:16.622Z,38.21
2018-08-03T08:44:16.630Z,38.18
2018-08-03T08:45:17.549Z,38.09
2018-08-03T08:46:16.701Z,37.90
2018-08-03T08:47:16.607Z,37.87
2018-08-03T08:48:16.589Z,37.85
2018-08-03T08:49:16.578Z,37.77
2018-08-03T08:50:16.578Z,36.87
2018-08-03T08:51:16.538Z,36.71
2018-08-03T08:52:16.660Z,36.83
2018-08-03T08:53:16.558Z,36.60
2018-08-03T08:54:16.517Z,36.50
2018-08-03T08:55:16.509Z,36.52
2018-08-03T08:56:16.535Z,36.33
2018-08-03T08:57:16.521Z,36.28
2018-08-03T08:58:16.473Z,36.11
2018-08-03T08:59:16.460Z,35.92
2018-08-03T09:00:16.537Z,35.56
2018-08-03T09:01:16.454Z,35.20
2018-08-03T09:02:16.452Z,35.15
2018-08-03T09:03:16.417Z,35.27
2018-08-03T09:04:16.414Z,35.37
2018-08-03T09:05:16.396Z,35.42
2018-08-03T09:06:16.402Z,35.40
2018-08-03T09:07:16.411Z,35.56
2018-08-03T09:08:16.376Z,35.65
2018-08-03T09:09:16.357Z,35.83
2018-08-03T09:10:16.376Z,35.74
2018-08-03T09:11:16.340Z,35.69
2018-08-03T09:12:16.355Z,35.58
2018-08-03T09:13:16.342Z,35.46
2018-08-03T09:14:16.313Z,35.21
2018-08-03T09:15:16.299Z,35.15
2018-08-03T09:16:16.294Z,35.00
2018-08-03T09:17:16.300Z,35.03
2018-08-03T09:18:16.278Z,34.91
2018-08-03T09:19:16.287Z,34.76
2018-08-03T09:20:16.253Z,34.86
2018-08-03T09:21:16.234Z,34.80
2018-08-03T09:22:16.258Z,34.91
2018-08-03T09:23:16.228Z,35.09
2018-08-03T09:24:16.209Z,35.12
2018-08-03T09:25:16.206Z,34.98
2018-08-03T09:26:16.193Z,34.88
2018-08-03T09:27:16.204Z,34.63
2018-08-03T09:28:16.169Z,34.64
2018-08-03T09:29:16.158Z,34.49
2018-08-03T09:30:16.150Z,34.31
2018-08-03T09:31:16.145Z,34.46
2018-08-03T09:32:16.153Z,34.64
2018-08-03T09:33:16.130Z,34.72
2018-08-03T09:34:16.112Z,34.73
2018-08-03T09:35:16.098Z,34.76
2018-08-03T09:36:16.078Z,34.50
2018-08-03T09:37:16.142Z,34.34
2018-08-03T09:38:16.021Z,34.19
2018-08-03T09:39:16.020Z,34.08
2018-08-03T09:40:16.003Z,34.00
2018-08-03T09:41:16.033Z,34.06
2018-08-03T09:42:16.054Z,34.05
2018-08-03T09:43:16.137Z,34.06
2018-08-03T09:44:16.014Z,34.15
2018-08-03T09:45:16.003Z,34.27
2018-08-03T09:46:15.990Z,34.19
2018-08-03T09:47:15.979Z,34.18
2018-08-03T09:48:16.007Z,34.28
2018-08-03T09:49:16.029Z,34.28
2018-08-03T09:50:15.948Z,34.40
2018-08-03T09:51:15.953Z,34.40
2018-08-03T09:52:15.953Z,34.28
2018-08-03T09:53:16.041Z,34.28
2018-08-03T09:54:15.911Z,34.21
2018-08-03T09:55:15.968Z,34.21
2018-08-03T09:56:15.889Z,34.16
2018-08-03T09:57:15.883Z,34.06
2018-08-03T09:58:15.896Z,33.93
2018-08-03T09:59:15.888Z,33.56
2018-08-03T10:00:15.837Z,32.72
2018-08-03T10:01:15.834Z,32.71
2018-08-03T10:02:15.824Z,32.90
2018-08-03T10:03:15.832Z,33.12
2018-08-03T10:04:15.811Z,33.33
2018-08-03T10:05:15.789Z,33.37
2018-08-03T10:06:15.795Z,33.55
2018-08-03T10:07:15.790Z,33.59
2018-08-03T10:08:15.788Z,33.68
2018-08-03T10:09:15.749Z,33.74
2018-08-03T10:10:15.756Z,33.68
2018-08-03T10:11:15.725Z,33.74
2018-08-03T10:12:15.687Z,33.86
2018-08-03T10:13:15.731Z,33.90
2018-08-03T10:14:15.703Z,33.82
2018-08-03T10:15:15.693Z,33.78
2018-08-03T10:16:15.685Z,33.87
2018-08-03T10:17:15.671Z,33.94
2018-08-03T10:18:15.680Z,33.86
2018-08-03T10:19:15.665Z,33.71
2018-08-03T10:20:15.639Z,33.70
2018-08-03T10:21:15.636Z,33.81
2018-08-03T10:22:15.625Z,33.86
2018-08-03T10:23:15.632Z,33.97
2018-08-03T10:24:15.593Z,33.96
2018-08-03T10:25:15.609Z,33.93
2018-08-03T10:26:15.590Z,34.01
2018-08-03T10:27:15.574Z,34.06
2018-08-03T10:28:15.590Z,34.19
2018-08-03T10:29:15.543Z,34.28
2018-08-03T10:30:15.546Z,34.40
2018-08-03T10:31:15.525Z,34.42
2018-08-03T10:32:15.548Z,34.43
2018-08-03T10:33:15.523Z,34.38
2018-08-03T10:34:15.494Z,34.42
2018-08-03T10:35:15.485Z,34.56
2018-08-03T10:36:15.463Z,34.56
2018-08-03T10:37:15.460Z,34.43
2018-08-03T10:38:15.549Z,34.42
2018-08-03T10:39:15.438Z,34.30
2018-08-03T10:40:15.433Z,34.28
2018-08-03T10:41:15.419Z,34.00
2018-08-03T10:42:15.536Z,33.96
2018-08-03T10:43:15.442Z,33.87
2018-08-03T10:44:15.392Z,33.97
2018-08-03T10:45:15.398Z,33.96
2018-08-03T10:46:15.382Z,33.93
2018-08-03T10:47:15.442Z,34.05
2018-08-03T10:48:15.427Z,34.16
2018-08-03T10:49:15.368Z,34.16
2018-08-03T10:50:15.339Z,34.12
2018-08-03T10:51:15.322Z,34.08
2018-08-03T10:52:15.336Z,34.14
2018-08-03T10:53:15.287Z,34.23
2018-08-03T10:54:15.286Z,34.31
2018-08-03T10:55:15.281Z,34.34
2018-08-03T10:56:15.277Z,34.40
2018-08-03T10:57:15.255Z,34.45
2018-08-03T10:58:15.273Z,34.45
2018-08-03T10:59:15.263Z,34.48
2018-08-03T11:00:15.221Z,34.48
2018-08-03T11:01:15.235Z,34.38
2018-08-03T11:02:15.211Z,34.55
2018-08-03T11:03:15.201Z,34.58
2018-08-03T11:04:15.210Z,34.58
2018-08-03T11:05:15.171Z,34.60
2018-08-03T11:06:15.159Z,34.64
2018-08-03T11:07:15.158Z,34.69
2018-08-03T11:08:15.156Z,34.73
2018-08-03T11:09:15.155Z,34.75
2018-08-03T11:10:15.120Z,34.61
2018-08-03T11:11:15.106Z,34.56
2018-08-03T11:12:15.096Z,34.45
2018-08-03T11:13:15.085Z,34.34
2018-08-03T11:14:15.096Z,34.46
2018-08-03T11:15:15.080Z,34.30
2018-08-03T11:16:15.059Z,34.18
2018-08-03T11:17:15.044Z,34.08
2018-08-03T11:18:15.052Z,34.03
2018-08-03T11:19:15.056Z,34.08
2018-08-03T11:20:15.016Z,34.08
2018-08-03T11:21:15.014Z,33.94
2018-08-03T11:22:15.001Z,34.06
2018-08-03T11:23:14.994Z,34.06
2018-08-03T11:24:15.035Z,34.06
2018-08-03T11:25:14.976Z,34.01
2018-08-03T11:26:14.956Z,33.94
2018-08-03T11:27:14.941Z,34.03
2018-08-03T11:28:14.934Z,34.14
2018-08-03T11:29:15.108Z,34.16
2018-08-03T11:30:14.916Z,34.30
2018-08-03T11:31:14.984Z,34.40
2018-08-03T11:32:14.894Z,34.49
2018-08-03T11:33:14.887Z,34.38
2018-08-03T11:34:14.906Z,34.52
2018-08-03T11:35:14.950Z,34.38
2018-08-03T11:36:14.846Z,34.36
2018-08-03T11:37:14.845Z,34.40
2018-08-03T11:38:14.856Z,34.40
2018-08-03T11:39:14.927Z,34.43
2018-08-03T11:40:14.807Z,34.36
2018-08-03T11:41:14.821Z,34.30
2018-08-03T11:42:14.795Z,34.28
2018-08-03T11:43:14.779Z,34.30
2018-08-03T11:44:14.825Z,34.31
2018-08-03T11:45:14.800Z,34.34
2018-08-03T11:46:14.754Z,34.36
2018-08-03T11:47:14.741Z,34.31
2018-08-03T11:48:14.765Z,34.27
2018-08-03T11:49:14.742Z,34.28
2018-08-03T11:50:14.701Z,34.31
2018-08-03T11:51:14.703Z,34.37
2018-08-03T11:52:14.681Z,34.28
2018-08-03T11:53:14.671Z,34.28
2018-08-03T11:54:14.701Z,34.38
2018-08-03T11:55:14.663Z,34.55
2018-08-03T11:56:14.652Z,34.63
2018-08-03T11:57:14.632Z,34.58
2018-08-03T11:58:14.626Z,34.53
2018-08-03T11:59:14.638Z,34.49
2018-08-03T12:00:14.604Z,34.24
2018-08-03T12:01:14.591Z,34.28
2018-08-03T12:02:14.584Z,34.26
2018-08-03T12:03:14.596Z,34.31
2018-08-03T12:04:14.600Z,34.40
2018-08-03T12:05:14.574Z,34.43
2018-08-03T12:06:14.541Z,34.40
2018-08-03T12:07:14.543Z,34.46
2018-08-03T12:08:14.525Z,34.37
2018-08-03T12:09:14.536Z,34.49
2018-08-03T12:10:14.480Z,34.36
2018-08-03T12:11:14.512Z,34.31
2018-08-03T12:12:14.507Z,34.38
2018-08-03T12:13:14.466Z,34.26
2018-08-03T12:14:14.492Z,34.26
2018-08-03T12:15:14.457Z,34.27
2018-08-03T12:16:14.498Z,34.37
2018-08-03T12:17:14.429Z,34.38
2018-08-03T12:18:14.424Z,34.27
2018-08-03T12:19:14.407Z,34.34
2018-08-03T12:20:14.438Z,34.33
2018-08-03T12:21:14.389Z,34.21
2018-08-03T12:22:14.403Z,34.16
2018-08-03T12:23:14.366Z,34.27
2018-08-03T12:24:14.329Z,34.27
2018-08-03T12:25:14.318Z,34.24
2018-08-03T12:26:14.370Z,34.23
2018-08-03T12:27:14.329Z,34.21
2018-08-03T12:28:14.445Z,34.31
2018-08-03T12:29:14.305Z,34.43
2018-08-03T12:30:14.323Z,34.30
2018-08-03T12:31:14.321Z,34.30
2018-08-03T12:32:14.223Z,34.24
2018-08-03T12:33:14.267Z,34.27
2018-08-03T12:34:14.271Z,34.28
2018-08-03T12:35:14.218Z,34.27
2018-08-03T12:36:14.230Z,34.30
2018-08-03T12:37:14.227Z,34.26
2018-08-03T12:38:14.180Z,34.27
2018-08-03T12:39:14.201Z,34.16
2018-08-03T12:40:14.214Z,34.24
2018-08-03T12:41:14.198Z,34.19
2018-08-03T12:42:14.168Z,34.27
2018-08-03T12:43:14.163Z,34.34
2018-08-03T12:44:14.150Z,34.27
2018-08-03T12:45:14.118Z,34.33
2018-08-03T12:46:14.132Z,34.33
2018-08-03T12:47:14.125Z,34.37
2018-08-03T12:48:14.105Z,34.42
2018-08-03T12:49:14.095Z,34.42
2018-08-03T12:50:14.121Z,34.43
2018-08-03T12:51:14.070Z,34.40
2018-08-03T12:52:14.023Z,34.34